sensor_id;sensor_type;location;lat;lon;timestamp;temperature;humidity
14737;DHT22;7459;53.590;10.062;2022-12-04T00:01:08;1.20;99.90
14737;DHT22;7459;53.590;10.062;2022-12-04T00:03:35;1.20;99.90
14737;DHT22;7459;53.590;10.062;2022-12-04T00:06:24;1.20;99.90
14737;DHT22;7459;53.590;10.062;2022-12-04T00:08:49;1.20;99.90
14737;DHT22;7459;53.590;10.062;2022-12-04T00:11:18;1.20;99.90
14737;DHT22;7459;53.590;10.062;2022-12-04T00:13:45;1.20;99.90
14737;DHT22;7459;53.590;10.062;2022-12-04T00:16:14;1.20;99.90
14737;DHT22;7459;53.590;10.062;2022-12-04T00:18:42;1.20;99.90
14737;DHT22;7459;53.590;10.062;2022-12-04T00:21:10;1.20;99.90
14737;DHT22;7459;53.590;10.062;2022-12-04T00:23:39;1.20;99.90
14737;DHT22;7459;53.590;10.062;2022-12-04T00:26:20;1.20;99.90
14737;DHT22;7459;53.590;10.062;2022-12-04T00:28:48;1.20;99.90
14737;DHT22;7459;53.590;10.062;2022-12-04T00:31:20;1.20;99.90
14737;DHT22;7459;53.590;10.062;2022-12-04T00:33:47;1.20;99.90
14737;DHT22;7459;53.590;10.062;2022-12-04T00:36:15;1.20;99.90
14737;DHT22;7459;53.590;10.062;2022-12-04T00:38:42;1.20;99.90
14737;DHT22;7459;53.590;10.062;2022-12-04T00:41:13;1.20;99.90
14737;DHT22;7459;53.590;10.062;2022-12-04T00:43:40;1.20;99.90
14737;DHT22;7459;53.590;10.062;2022-12-04T00:46:07;1.20;99.90
14737;DHT22;7459;53.590;10.062;2022-12-04T00:48:33;1.20;99.90
14737;DHT22;7459;53.590;10.062;2022-12-04T00:51:09;1.20;99.90
14737;DHT22;7459;53.590;10.062;2022-12-04T00:53:36;1.20;99.90
14737;DHT22;7459;53.590;10.062;2022-12-04T00:56:04;1.20;99.90
14737;DHT22;7459;53.590;10.062;2022-12-04T00:58:35;1.20;99.90
14737;DHT22;7459;53.590;10.062;2022-12-04T01:01:15;1.20;99.90
14737;DHT22;7459;53.590;10.062;2022-12-04T01:03:44;1.30;99.90
14737;DHT22;7459;53.590;10.062;2022-12-04T01:06:39;1.30;99.90
14737;DHT22;7459;53.590;10.062;2022-12-04T01:09:05;1.20;99.90
14737;DHT22;7459;53.590;10.062;2022-12-04T01:11:31;1.20;99.90
14737;DHT22;7459;53.590;10.062;2022-12-04T01:13:58;1.20;99.90
14737;DHT22;7459;53.590;10.062;2022-12-04T01:16:29;1.20;99.90
14737;DHT22;7459;53.590;10.062;2022-12-04T01:18:59;1.20;99.90
14737;DHT22;7459;53.590;10.062;2022-12-04T01:21:25;1.20;99.90
14737;DHT22;7459;53.590;10.062;2022-12-04T01:23:51;1.20;99.90
14737;DHT22;7459;53.590;10.062;2022-12-04T01:26:18;1.20;99.90
14737;DHT22;7459;53.590;10.062;2022-12-04T01:28:44;1.20;99.90
14737;DHT22;7459;53.590;10.062;2022-12-04T01:31:15;1.20;99.90
14737;DHT22;7459;53.590;10.062;2022-12-04T01:33:42;1.20;99.90
14737;DHT22;7459;53.590;10.062;2022-12-04T01:36:12;1.20;99.90
14737;DHT22;7459;53.590;10.062;2022-12-04T01:38:39;1.10;99.90
14737;DHT22;7459;53.590;10.062;2022-12-04T01:41:06;1.10;99.90
14737;DHT22;7459;53.590;10.062;2022-12-04T01:43:34;1.20;99.90
14737;DHT22;7459;53.590;10.062;2022-12-04T01:46:01;1.20;99.90
14737;DHT22;7459;53.590;10.062;2022-12-04T01:48:54;1.20;99.90
14737;DHT22;7459;53.590;10.062;2022-12-04T01:51:27;1.20;99.90
14737;DHT22;7459;53.590;10.062;2022-12-04T01:54:00;1.20;99.90
14737;DHT22;7459;53.590;10.062;2022-12-04T01:56:37;1.10;99.90
14737;DHT22;7459;53.590;10.062;2022-12-04T01:59:06;1.20;99.90
14737;DHT22;7459;53.590;10.062;2022-12-04T02:01:37;1.20;99.90
14737;DHT22;7459;53.590;10.062;2022-12-04T02:04:07;1.20;99.90
14737;DHT22;7459;53.590;10.062;2022-12-04T02:06:33;1.20;99.90
14737;DHT22;7459;53.590;10.062;2022-12-04T02:08:59;1.20;99.90
14737;DHT22;7459;53.590;10.062;2022-12-04T02:17:24;1.20;99.90
14737;DHT22;7459;53.590;10.062;2022-12-04T02:20:24;1.20;99.90
14737;DHT22;7459;53.590;10.062;2022-12-04T02:23:21;1.20;99.90
14737;DHT22;7459;53.590;10.062;2022-12-04T02:32:02;1.20;99.90
14737;DHT22;7459;53.590;10.062;2022-12-04T02:37:29;1.50;99.90
14737;DHT22;7459;53.590;10.062;2022-12-04T02:40:04;1.50;99.90
14737;DHT22;7459;53.590;10.062;2022-12-04T02:42:41;1.40;99.90
14737;DHT22;7459;53.590;10.062;2022-12-04T02:45:25;1.40;99.90
14737;DHT22;7459;53.590;10.062;2022-12-04T02:47:58;1.40;99.90
14737;DHT22;7459;53.590;10.062;2022-12-04T02:50:25;1.40;99.90
14737;DHT22;7459;53.590;10.062;2022-12-04T02:53:00;1.40;99.90
14737;DHT22;7459;53.590;10.062;2022-12-04T02:55:37;1.40;99.90
14737;DHT22;7459;53.590;10.062;2022-12-04T02:58:14;1.40;99.90
14737;DHT22;7459;53.590;10.062;2022-12-04T03:00:44;1.40;99.90
14737;DHT22;7459;53.590;10.062;2022-12-04T03:03:21;1.40;99.90
14737;DHT22;7459;53.590;10.062;2022-12-04T03:06:09;1.40;99.90
14737;DHT22;7459;53.590;10.062;2022-12-04T03:08:46;1.30;99.90
14737;DHT22;7459;53.590;10.062;2022-12-04T03:11:17;1.30;99.90
14737;DHT22;7459;53.590;10.062;2022-12-04T03:14:04;1.40;99.90
14737;DHT22;7459;53.590;10.062;2022-12-04T03:16:38;1.40;99.90
14737;DHT22;7459;53.590;10.062;2022-12-04T03:19:26;1.40;99.90
14737;DHT22;7459;53.590;10.062;2022-12-04T03:22:00;1.40;99.90
14737;DHT22;7459;53.590;10.062;2022-12-04T03:24:37;1.40;99.90
14737;DHT22;7459;53.590;10.062;2022-12-04T03:30:05;1.30;99.90
14737;DHT22;7459;53.590;10.062;2022-12-04T03:32:46;1.30;99.90
14737;DHT22;7459;53.590;10.062;2022-12-04T03:35:22;1.30;99.90
14737;DHT22;7459;53.590;10.062;2022-12-04T03:38:15;1.30;99.90
14737;DHT22;7459;53.590;10.062;2022-12-04T03:43:38;1.30;99.90
14737;DHT22;7459;53.590;10.062;2022-12-04T03:49:17;1.30;99.90
14737;DHT22;7459;53.590;10.062;2022-12-04T03:52:16;1.30;99.90
14737;DHT22;7459;53.590;10.062;2022-12-04T03:54:50;1.30;99.90
14737;DHT22;7459;53.590;10.062;2022-12-04T03:57:25;1.20;99.90
14737;DHT22;7459;53.590;10.062;2022-12-04T04:00:04;1.30;99.90
14737;DHT22;7459;53.590;10.062;2022-12-04T04:02:42;1.30;99.90
14737;DHT22;7459;53.590;10.062;2022-12-04T04:05:10;1.30;99.90
14737;DHT22;7459;53.590;10.062;2022-12-04T04:07:59;1.30;99.90
14737;DHT22;7459;53.590;10.062;2022-12-04T04:10:46;1.30;99.90
14737;DHT22;7459;53.590;10.062;2022-12-04T04:13:15;1.30;99.90
14737;DHT22;7459;53.590;10.062;2022-12-04T04:16:04;1.30;99.90
14737;DHT22;7459;53.590;10.062;2022-12-04T04:18:51;1.30;99.90
14737;DHT22;7459;53.590;10.062;2022-12-04T04:21:38;1.30;99.90
14737;DHT22;7459;53.590;10.062;2022-12-04T04:24:42;1.20;99.90
14737;DHT22;7459;53.590;10.062;2022-12-04T04:27:10;1.30;99.90
14737;DHT22;7459;53.590;10.062;2022-12-04T04:29:36;1.20;99.90
14737;DHT22;7459;53.590;10.062;2022-12-04T04:32:12;1.20;99.90
14737;DHT22;7459;53.590;10.062;2022-12-04T04:35:03;1.30;99.90
14737;DHT22;7459;53.590;10.062;2022-12-04T04:43:10;1.20;99.90
14737;DHT22;7459;53.590;10.062;2022-12-04T04:45:50;1.30;99.90
14737;DHT22;7459;53.590;10.062;2022-12-04T04:48:22;1.30;99.90
14737;DHT22;7459;53.590;10.062;2022-12-04T04:50:52;1.30;99.90
14737;DHT22;7459;53.590;10.062;2022-12-04T04:53:21;1.30;99.90
14737;DHT22;7459;53.590;10.062;2022-12-04T04:55:51;1.30;99.90
14737;DHT22;7459;53.590;10.062;2022-12-04T04:58:19;1.30;99.90
14737;DHT22;7459;53.590;10.062;2022-12-04T05:00:56;1.30;99.90
14737;DHT22;7459;53.590;10.062;2022-12-04T05:03:26;1.30;99.90
14737;DHT22;7459;53.590;10.062;2022-12-04T05:05:53;1.30;99.90
14737;DHT22;7459;53.590;10.062;2022-12-04T05:08:18;1.30;99.90
14737;DHT22;7459;53.590;10.062;2022-12-04T05:10:44;1.30;99.90
14737;DHT22;7459;53.590;10.062;2022-12-04T05:13:13;1.30;99.90
14737;DHT22;7459;53.590;10.062;2022-12-04T05:15:40;1.30;99.90
14737;DHT22;7459;53.590;10.062;2022-12-04T05:18:07;1.30;99.90
14737;DHT22;7459;53.590;10.062;2022-12-04T05:20:33;1.30;99.90
14737;DHT22;7459;53.590;10.062;2022-12-04T05:22:59;1.30;99.90
14737;DHT22;7459;53.590;10.062;2022-12-04T05:25:24;1.30;99.90
14737;DHT22;7459;53.590;10.062;2022-12-04T05:27:50;1.30;99.90
14737;DHT22;7459;53.590;10.062;2022-12-04T05:30:16;1.30;99.90
14737;DHT22;7459;53.590;10.062;2022-12-04T05:32:42;1.30;99.90
14737;DHT22;7459;53.590;10.062;2022-12-04T05:35:08;1.30;99.90
14737;DHT22;7459;53.590;10.062;2022-12-04T05:37:38;1.30;99.90
14737;DHT22;7459;53.590;10.062;2022-12-04T05:40:05;1.30;99.90
14737;DHT22;7459;53.590;10.062;2022-12-04T05:42:32;1.30;99.90
14737;DHT22;7459;53.590;10.062;2022-12-04T05:44:58;1.30;99.90
14737;DHT22;7459;53.590;10.062;2022-12-04T05:47:24;1.30;99.90
14737;DHT22;7459;53.590;10.062;2022-12-04T05:49:49;1.30;99.90
14737;DHT22;7459;53.590;10.062;2022-12-04T05:52:15;1.20;99.90
14737;DHT22;7459;53.590;10.062;2022-12-04T05:54:41;1.30;99.90
14737;DHT22;7459;53.590;10.062;2022-12-04T05:57:07;1.30;99.90
14737;DHT22;7459;53.590;10.062;2022-12-04T05:59:33;1.30;99.90
14737;DHT22;7459;53.590;10.062;2022-12-04T06:01:58;1.30;99.90
14737;DHT22;7459;53.590;10.062;2022-12-04T06:04:24;1.30;99.90
14737;DHT22;7459;53.590;10.062;2022-12-04T06:06:51;1.30;99.90
14737;DHT22;7459;53.590;10.062;2022-12-04T06:09:17;1.30;99.90
14737;DHT22;7459;53.590;10.062;2022-12-04T06:11:43;1.30;99.90
14737;DHT22;7459;53.590;10.062;2022-12-04T06:14:11;1.30;99.90
14737;DHT22;7459;53.590;10.062;2022-12-04T06:16:41;1.40;99.90
14737;DHT22;7459;53.590;10.062;2022-12-04T06:19:16;1.30;99.90
14737;DHT22;7459;53.590;10.062;2022-12-04T06:21:44;1.30;99.90
14737;DHT22;7459;53.590;10.062;2022-12-04T06:24:13;1.30;99.90
14737;DHT22;7459;53.590;10.062;2022-12-04T06:26:47;1.30;99.90
14737;DHT22;7459;53.590;10.062;2022-12-04T06:29:14;1.30;99.90
14737;DHT22;7459;53.590;10.062;2022-12-04T06:31:41;1.30;99.90
14737;DHT22;7459;53.590;10.062;2022-12-04T06:34:07;1.30;99.90
14737;DHT22;7459;53.590;10.062;2022-12-04T06:36:33;1.30;99.90
14737;DHT22;7459;53.590;10.062;2022-12-04T06:38:59;1.30;99.90
14737;DHT22;7459;53.590;10.062;2022-12-04T06:41:26;1.30;99.90
14737;DHT22;7459;53.590;10.062;2022-12-04T06:43:53;1.30;99.90
14737;DHT22;7459;53.590;10.062;2022-12-04T06:46:24;1.30;99.90
14737;DHT22;7459;53.590;10.062;2022-12-04T06:48:53;1.30;99.90
14737;DHT22;7459;53.590;10.062;2022-12-04T06:51:22;1.30;99.90
14737;DHT22;7459;53.590;10.062;2022-12-04T06:53:50;1.30;99.90
14737;DHT22;7459;53.590;10.062;2022-12-04T06:56:19;1.30;99.90
14737;DHT22;7459;53.590;10.062;2022-12-04T06:58:48;1.30;99.90
14737;DHT22;7459;53.590;10.062;2022-12-04T07:01:18;1.30;99.90
14737;DHT22;7459;53.590;10.062;2022-12-04T07:03:45;1.30;99.90
14737;DHT22;7459;53.590;10.062;2022-12-04T07:08:52;1.40;99.90
14737;DHT22;7459;53.590;10.062;2022-12-04T07:11:20;1.40;99.90
14737;DHT22;7459;53.590;10.062;2022-12-04T07:13:47;1.40;99.90
14737;DHT22;7459;53.590;10.062;2022-12-04T07:16:15;1.40;99.90
14737;DHT22;7459;53.590;10.062;2022-12-04T07:18:41;1.40;99.90
14737;DHT22;7459;53.590;10.062;2022-12-04T07:21:16;1.40;99.90
14737;DHT22;7459;53.590;10.062;2022-12-04T07:23:43;1.40;99.90
14737;DHT22;7459;53.590;10.062;2022-12-04T07:26:12;1.40;99.90
14737;DHT22;7459;53.590;10.062;2022-12-04T07:28:38;1.40;99.90
14737;DHT22;7459;53.590;10.062;2022-12-04T07:31:09;1.40;99.90
14737;DHT22;7459;53.590;10.062;2022-12-04T07:33:36;1.40;99.90
14737;DHT22;7459;53.590;10.062;2022-12-04T07:36:04;1.40;99.90
14737;DHT22;7459;53.590;10.062;2022-12-04T07:38:32;1.40;99.90
14737;DHT22;7459;53.590;10.062;2022-12-04T07:41:00;1.40;99.90
14737;DHT22;7459;53.590;10.062;2022-12-04T07:43:27;1.40;99.90
14737;DHT22;7459;53.590;10.062;2022-12-04T07:45:54;1.40;99.90
14737;DHT22;7459;53.590;10.062;2022-12-04T07:48:22;1.40;99.90
14737;DHT22;7459;53.590;10.062;2022-12-04T07:50:48;1.40;99.90
14737;DHT22;7459;53.590;10.062;2022-12-04T07:53:13;1.40;99.90
14737;DHT22;7459;53.590;10.062;2022-12-04T07:55:39;1.40;99.90
14737;DHT22;7459;53.590;10.062;2022-12-04T07:58:05;1.40;99.90
14737;DHT22;7459;53.590;10.062;2022-12-04T08:00:31;1.40;99.90
14737;DHT22;7459;53.590;10.062;2022-12-04T08:02:57;1.40;99.90
14737;DHT22;7459;53.590;10.062;2022-12-04T08:05:22;1.40;99.90
14737;DHT22;7459;53.590;10.062;2022-12-04T08:07:48;1.50;99.90
14737;DHT22;7459;53.590;10.062;2022-12-04T08:10:14;1.50;99.90
14737;DHT22;7459;53.590;10.062;2022-12-04T08:12:40;1.50;99.90
14737;DHT22;7459;53.590;10.062;2022-12-04T08:15:07;1.50;99.90
14737;DHT22;7459;53.590;10.062;2022-12-04T08:17:33;1.50;99.90
14737;DHT22;7459;53.590;10.062;2022-12-04T08:19:59;1.50;99.90
14737;DHT22;7459;53.590;10.062;2022-12-04T08:22:25;1.50;99.90
14737;DHT22;7459;53.590;10.062;2022-12-04T08:24:51;1.50;99.90
14737;DHT22;7459;53.590;10.062;2022-12-04T08:27:16;1.60;99.90
14737;DHT22;7459;53.590;10.062;2022-12-04T08:29:42;1.60;99.90
14737;DHT22;7459;53.590;10.062;2022-12-04T08:32:08;1.60;99.90
14737;DHT22;7459;53.590;10.062;2022-12-04T08:34:34;1.60;99.90
14737;DHT22;7459;53.590;10.062;2022-12-04T08:36:59;1.60;99.90
14737;DHT22;7459;53.590;10.062;2022-12-04T08:39:25;1.60;99.90
14737;DHT22;7459;53.590;10.062;2022-12-04T08:41:51;1.60;99.90
14737;DHT22;7459;53.590;10.062;2022-12-04T08:44:16;1.60;99.90
14737;DHT22;7459;53.590;10.062;2022-12-04T08:46:42;1.60;99.90
14737;DHT22;7459;53.590;10.062;2022-12-04T08:49:08;1.60;99.90
14737;DHT22;7459;53.590;10.062;2022-12-04T08:51:33;1.70;99.90
14737;DHT22;7459;53.590;10.062;2022-12-04T08:54:05;1.70;99.90
14737;DHT22;7459;53.590;10.062;2022-12-04T08:56:32;1.70;99.90
14737;DHT22;7459;53.590;10.062;2022-12-04T08:58:59;1.70;99.90
14737;DHT22;7459;53.590;10.062;2022-12-04T09:01:26;1.80;99.90
14737;DHT22;7459;53.590;10.062;2022-12-04T09:03:52;1.80;99.90
14737;DHT22;7459;53.590;10.062;2022-12-04T09:06:19;1.80;99.90
14737;DHT22;7459;53.590;10.062;2022-12-04T09:08:44;1.80;99.90
14737;DHT22;7459;53.590;10.062;2022-12-04T09:11:14;1.80;99.90
14737;DHT22;7459;53.590;10.062;2022-12-04T09:13:44;1.80;99.90
14737;DHT22;7459;53.590;10.062;2022-12-04T09:16:13;1.80;99.90
14737;DHT22;7459;53.590;10.062;2022-12-04T09:18:40;1.90;99.90
14737;DHT22;7459;53.590;10.062;2022-12-04T09:21:08;1.90;99.90
14737;DHT22;7459;53.590;10.062;2022-12-04T09:23:35;1.90;99.90
14737;DHT22;7459;53.590;10.062;2022-12-04T09:26:04;1.90;99.90
14737;DHT22;7459;53.590;10.062;2022-12-04T09:28:30;1.90;99.90
14737;DHT22;7459;53.590;10.062;2022-12-04T09:30:58;1.90;99.90
14737;DHT22;7459;53.590;10.062;2022-12-04T09:33:24;1.90;99.90
14737;DHT22;7459;53.590;10.062;2022-12-04T09:35:50;1.90;99.90
14737;DHT22;7459;53.590;10.062;2022-12-04T09:38:16;1.90;99.90
14737;DHT22;7459;53.590;10.062;2022-12-04T09:41:02;1.90;99.90
14737;DHT22;7459;53.590;10.062;2022-12-04T09:49:35;2.00;99.90
14737;DHT22;7459;53.590;10.062;2022-12-04T09:52:35;2.00;99.90
14737;DHT22;7459;53.590;10.062;2022-12-04T09:55:34;2.00;99.90
14737;DHT22;7459;53.590;10.062;2022-12-04T09:58:05;2.00;99.90
14737;DHT22;7459;53.590;10.062;2022-12-04T10:00:40;2.10;99.90
14737;DHT22;7459;53.590;10.062;2022-12-04T10:03:14;2.10;99.90
14737;DHT22;7459;53.590;10.062;2022-12-04T10:08:35;2.10;99.90
14737;DHT22;7459;53.590;10.062;2022-12-04T10:11:14;2.10;99.90
14737;DHT22;7459;53.590;10.062;2022-12-04T10:13:52;2.10;99.90
14737;DHT22;7459;53.590;10.062;2022-12-04T10:16:59;2.20;99.90
14737;DHT22;7459;53.590;10.062;2022-12-04T10:25:23;2.20;99.90
14737;DHT22;7459;53.590;10.062;2022-12-04T10:30:41;2.30;99.90
14737;DHT22;7459;53.590;10.062;2022-12-04T10:33:14;2.40;99.90
14737;DHT22;7459;53.590;10.062;2022-12-04T10:35:45;2.40;99.90
14737;DHT22;7459;53.590;10.062;2022-12-04T10:38:31;2.50;99.90
14737;DHT22;7459;53.590;10.062;2022-12-04T10:43:55;2.50;99.90
14737;DHT22;7459;53.590;10.062;2022-12-04T10:46:26;2.50;99.90
14737;DHT22;7459;53.590;10.062;2022-12-04T10:48:57;2.50;99.90
14737;DHT22;7459;53.590;10.062;2022-12-04T10:51:36;2.50;99.90
14737;DHT22;7459;53.590;10.062;2022-12-04T10:54:37;2.50;99.90
14737;DHT22;7459;53.590;10.062;2022-12-04T10:57:10;2.50;99.90
14737;DHT22;7459;53.590;10.062;2022-12-04T10:59:48;2.50;99.90
14737;DHT22;7459;53.590;10.062;2022-12-04T11:02:22;2.50;99.90
14737;DHT22;7459;53.590;10.062;2022-12-04T11:04:55;2.50;99.90
14737;DHT22;7459;53.590;10.062;2022-12-04T11:07:24;2.50;99.90
14737;DHT22;7459;53.590;10.062;2022-12-04T11:10:01;2.40;99.90
14737;DHT22;7459;53.590;10.062;2022-12-04T11:12:30;2.40;99.90
14737;DHT22;7459;53.590;10.062;2022-12-04T11:15:22;2.40;99.90
14737;DHT22;7459;53.590;10.062;2022-12-04T11:17:47;2.40;99.90
14737;DHT22;7459;53.590;10.062;2022-12-04T11:20:20;2.40;99.90
14737;DHT22;7459;53.590;10.062;2022-12-04T11:25:17;2.40;99.90
14737;DHT22;7459;53.590;10.062;2022-12-04T11:27:54;2.40;99.90
14737;DHT22;7459;53.590;10.062;2022-12-04T11:30:34;2.40;99.90
14737;DHT22;7459;53.590;10.062;2022-12-04T11:33:03;2.40;99.90
14737;DHT22;7459;53.590;10.062;2022-12-04T11:35:31;2.40;99.90
14737;DHT22;7459;53.590;10.062;2022-12-04T11:38:13;2.40;99.90
14737;DHT22;7459;53.590;10.062;2022-12-04T11:40:51;2.50;99.90
14737;DHT22;7459;53.590;10.062;2022-12-04T11:43:19;2.50;99.90
14737;DHT22;7459;53.590;10.062;2022-12-04T11:45:58;2.50;99.90
14737;DHT22;7459;53.590;10.062;2022-12-04T11:48:28;2.50;99.90
14737;DHT22;7459;53.590;10.062;2022-12-04T11:54:13;2.50;99.90
14737;DHT22;7459;53.590;10.062;2022-12-04T11:56:55;2.50;99.90
14737;DHT22;7459;53.590;10.062;2022-12-04T11:59:43;2.50;99.90
14737;DHT22;7459;53.590;10.062;2022-12-04T12:02:34;2.50;99.90
14737;DHT22;7459;53.590;10.062;2022-12-04T12:11:28;2.50;99.90
14737;DHT22;7459;53.590;10.062;2022-12-04T12:14:18;2.50;99.90
14737;DHT22;7459;53.590;10.062;2022-12-04T12:17:22;2.50;99.90
14737;DHT22;7459;53.590;10.062;2022-12-04T12:26:23;2.60;99.90
14737;DHT22;7459;53.590;10.062;2022-12-04T12:32:52;2.80;99.90
14737;DHT22;7459;53.590;10.062;2022-12-04T12:36:07;2.90;99.90
14737;DHT22;7459;53.590;10.062;2022-12-04T12:39:02;2.80;99.90
14737;DHT22;7459;53.590;10.062;2022-12-04T12:41:42;2.80;99.90
14737;DHT22;7459;53.590;10.062;2022-12-04T12:44:37;2.80;99.90
14737;DHT22;7459;53.590;10.062;2022-12-04T12:47:25;2.80;99.90
14737;DHT22;7459;53.590;10.062;2022-12-04T12:50:09;2.80;99.90
14737;DHT22;7459;53.590;10.062;2022-12-04T12:52:58;2.80;99.90
14737;DHT22;7459;53.590;10.062;2022-12-04T12:55:33;2.80;99.90
14737;DHT22;7459;53.590;10.062;2022-12-04T13:01:03;2.80;99.90
14737;DHT22;7459;53.590;10.062;2022-12-04T13:04:08;2.80;99.90
14737;DHT22;7459;53.590;10.062;2022-12-04T13:06:33;2.80;99.90
14737;DHT22;7459;53.590;10.062;2022-12-04T13:09:30;2.80;99.90
14737;DHT22;7459;53.590;10.062;2022-12-04T13:12:10;2.80;99.90
14737;DHT22;7459;53.590;10.062;2022-12-04T13:14:37;2.80;99.90
14737;DHT22;7459;53.590;10.062;2022-12-04T13:17:11;2.80;99.90
14737;DHT22;7459;53.590;10.062;2022-12-04T13:19:59;2.80;99.90
14737;DHT22;7459;53.590;10.062;2022-12-04T13:26:28;2.80;99.90
14737;DHT22;7459;53.590;10.062;2022-12-04T13:29:31;2.80;99.90
14737;DHT22;7459;53.590;10.062;2022-12-04T13:32:31;2.80;99.90
14737;DHT22;7459;53.590;10.062;2022-12-04T13:35:08;2.90;99.90
14737;DHT22;7459;53.590;10.062;2022-12-04T13:38:08;2.90;99.90
14737;DHT22;7459;53.590;10.062;2022-12-04T13:40:45;2.90;99.90
14737;DHT22;7459;53.590;10.062;2022-12-04T13:43:27;2.90;99.90
14737;DHT22;7459;53.590;10.062;2022-12-04T13:45:58;2.90;99.90
14737;DHT22;7459;53.590;10.062;2022-12-04T13:48:31;2.90;99.90
14737;DHT22;7459;53.590;10.062;2022-12-04T13:51:03;2.90;99.90
14737;DHT22;7459;53.590;10.062;2022-12-04T13:53:46;2.90;99.90
14737;DHT22;7459;53.590;10.062;2022-12-04T13:56:27;2.90;99.90
14737;DHT22;7459;53.590;10.062;2022-12-04T13:59:00;3.00;99.90
14737;DHT22;7459;53.590;10.062;2022-12-04T14:01:36;3.00;99.90
14737;DHT22;7459;53.590;10.062;2022-12-04T14:04:03;3.00;99.90
14737;DHT22;7459;53.590;10.062;2022-12-04T14:06:38;3.00;99.90
14737;DHT22;7459;53.590;10.062;2022-12-04T14:09:27;3.00;99.90
14737;DHT22;7459;53.590;10.062;2022-12-04T14:11:58;3.00;99.90
14737;DHT22;7459;53.590;10.062;2022-12-04T14:14:26;3.00;99.90
14737;DHT22;7459;53.590;10.062;2022-12-04T14:16:56;3.00;99.90
14737;DHT22;7459;53.590;10.062;2022-12-04T14:19:32;3.00;99.90
14737;DHT22;7459;53.590;10.062;2022-12-04T14:22:00;3.00;99.90
14737;DHT22;7459;53.590;10.062;2022-12-04T14:24:38;3.10;99.90
14737;DHT22;7459;53.590;10.062;2022-12-04T14:29:57;3.10;99.90
14737;DHT22;7459;53.590;10.062;2022-12-04T14:32:27;3.10;99.90
14737;DHT22;7459;53.590;10.062;2022-12-04T14:34:54;3.10;99.90
14737;DHT22;7459;53.590;10.062;2022-12-04T14:37:38;3.10;99.90
14737;DHT22;7459;53.590;10.062;2022-12-04T14:40:43;3.10;99.90
14737;DHT22;7459;53.590;10.062;2022-12-04T14:43:18;3.10;99.90
14737;DHT22;7459;53.590;10.062;2022-12-04T14:45:53;3.10;99.90
14737;DHT22;7459;53.590;10.062;2022-12-04T14:48:31;3.10;99.90
14737;DHT22;7459;53.590;10.062;2022-12-04T14:51:21;3.10;99.90
14737;DHT22;7459;53.590;10.062;2022-12-04T14:54:17;3.10;99.90
14737;DHT22;7459;53.590;10.062;2022-12-04T14:57:32;3.10;99.90
14737;DHT22;7459;53.590;10.062;2022-12-04T15:00:00;3.10;99.90
14737;DHT22;7459;53.590;10.062;2022-12-04T15:02:39;3.10;99.90
14737;DHT22;7459;53.590;10.062;2022-12-04T15:05:14;3.20;99.90
14737;DHT22;7459;53.590;10.062;2022-12-04T15:07:47;3.20;99.90
14737;DHT22;7459;53.590;10.062;2022-12-04T15:10:26;3.20;99.90
14737;DHT22;7459;53.590;10.062;2022-12-04T15:13:11;3.20;99.90
14737;DHT22;7459;53.590;10.062;2022-12-04T15:15:44;3.20;99.90
14737;DHT22;7459;53.590;10.062;2022-12-04T15:18:17;3.20;99.90
14737;DHT22;7459;53.590;10.062;2022-12-04T15:23:18;3.20;99.90
14737;DHT22;7459;53.590;10.062;2022-12-04T15:26:08;3.20;99.90
14737;DHT22;7459;53.590;10.062;2022-12-04T15:28:46;3.20;99.90
14737;DHT22;7459;53.590;10.062;2022-12-04T15:31:44;3.20;99.90
14737;DHT22;7459;53.590;10.062;2022-12-04T15:34:16;3.20;99.90
14737;DHT22;7459;53.590;10.062;2022-12-04T15:36:54;3.20;99.90
14737;DHT22;7459;53.590;10.062;2022-12-04T15:39:26;3.20;99.90
14737;DHT22;7459;53.590;10.062;2022-12-04T15:42:45;3.20;99.90
14737;DHT22;7459;53.590;10.062;2022-12-04T15:45:00;3.20;99.90
14737;DHT22;7459;53.590;10.062;2022-12-04T15:47:48;3.20;99.90
14737;DHT22;7459;53.590;10.062;2022-12-04T15:50:21;3.30;99.90
14737;DHT22;7459;53.590;10.062;2022-12-04T15:52:59;3.30;99.90
14737;DHT22;7459;53.590;10.062;2022-12-04T15:55:50;3.30;99.90
14737;DHT22;7459;53.590;10.062;2022-12-04T15:58:35;3.30;99.90
14737;DHT22;7459;53.590;10.062;2022-12-04T16:01:11;3.30;99.90
14737;DHT22;7459;53.590;10.062;2022-12-04T16:03:44;3.30;99.90
14737;DHT22;7459;53.590;10.062;2022-12-04T16:06:21;3.30;99.90
14737;DHT22;7459;53.590;10.062;2022-12-04T16:08:55;3.30;99.90
14737;DHT22;7459;53.590;10.062;2022-12-04T16:11:36;3.30;99.90
14737;DHT22;7459;53.590;10.062;2022-12-04T16:16:43;3.30;99.90
14737;DHT22;7459;53.590;10.062;2022-12-04T16:19:14;3.30;99.90
14737;DHT22;7459;53.590;10.062;2022-12-04T16:21:40;3.40;99.90
14737;DHT22;7459;53.590;10.062;2022-12-04T16:24:10;3.40;99.90
14737;DHT22;7459;53.590;10.062;2022-12-04T16:26:36;3.40;99.90
14737;DHT22;7459;53.590;10.062;2022-12-04T16:29:02;3.40;99.90
14737;DHT22;7459;53.590;10.062;2022-12-04T16:31:27;3.40;99.90
14737;DHT22;7459;53.590;10.062;2022-12-04T16:33:53;3.40;99.90
14737;DHT22;7459;53.590;10.062;2022-12-04T16:36:19;3.40;99.90
14737;DHT22;7459;53.590;10.062;2022-12-04T16:38:44;3.40;99.90
14737;DHT22;7459;53.590;10.062;2022-12-04T16:41:17;3.40;99.90
14737;DHT22;7459;53.590;10.062;2022-12-04T16:43:44;3.40;99.90
14737;DHT22;7459;53.590;10.062;2022-12-04T16:46:14;3.40;99.90
14737;DHT22;7459;53.590;10.062;2022-12-04T16:48:43;3.40;99.90
14737;DHT22;7459;53.590;10.062;2022-12-04T16:51:14;3.40;99.90
14737;DHT22;7459;53.590;10.062;2022-12-04T16:53:41;3.40;99.90
14737;DHT22;7459;53.590;10.062;2022-12-04T16:56:08;3.40;99.90
14737;DHT22;7459;53.590;10.062;2022-12-04T16:58:34;3.50;99.90
14737;DHT22;7459;53.590;10.062;2022-12-04T17:01:00;3.50;99.90
14737;DHT22;7459;53.590;10.062;2022-12-04T17:03:30;3.50;99.90
14737;DHT22;7459;53.590;10.062;2022-12-04T17:05:58;3.50;99.90
14737;DHT22;7459;53.590;10.062;2022-12-04T17:08:25;3.50;99.90
14737;DHT22;7459;53.590;10.062;2022-12-04T17:10:51;3.50;99.90
14737;DHT22;7459;53.590;10.062;2022-12-04T17:13:19;3.50;99.90
14737;DHT22;7459;53.590;10.062;2022-12-04T17:15:46;3.50;99.90
14737;DHT22;7459;53.590;10.062;2022-12-04T17:18:12;3.50;99.90
14737;DHT22;7459;53.590;10.062;2022-12-04T17:20:42;3.50;99.90
14737;DHT22;7459;53.590;10.062;2022-12-04T17:23:09;3.50;99.90
14737;DHT22;7459;53.590;10.062;2022-12-04T17:25:37;3.50;99.90
14737;DHT22;7459;53.590;10.062;2022-12-04T17:28:03;3.50;99.90
14737;DHT22;7459;53.590;10.062;2022-12-04T17:30:29;3.60;99.90
14737;DHT22;7459;53.590;10.062;2022-12-04T17:32:54;3.60;99.90
14737;DHT22;7459;53.590;10.062;2022-12-04T17:35:20;3.60;99.90
14737;DHT22;7459;53.590;10.062;2022-12-04T17:37:46;3.60;99.90
14737;DHT22;7459;53.590;10.062;2022-12-04T17:40:12;3.60;99.90
14737;DHT22;7459;53.590;10.062;2022-12-04T17:42:39;3.60;99.90
14737;DHT22;7459;53.590;10.062;2022-12-04T17:45:08;3.60;99.90
14737;DHT22;7459;53.590;10.062;2022-12-04T17:47:35;3.60;99.90
14737;DHT22;7459;53.590;10.062;2022-12-04T17:50:02;3.60;99.90
14737;DHT22;7459;53.590;10.062;2022-12-04T17:52:31;3.60;99.90